createdAt,value
2017-03-20T00:02:09.704Z,99.99
2017-03-20T00:07:06.496Z,99.99
2017-03-20T00:12:03.419Z,99.99
2017-03-20T00:17:00.673Z,99.99
2017-03-20T00:21:56.882Z,99.99
2017-03-20T00:26:53.510Z,99.99
2017-03-20T00:31:50.612Z,99.99
2017-03-20T00:36:47.118Z,99.99
2017-03-20T00:41:43.777Z,99.99
2017-03-20T00:46:40.151Z,99.99
2017-03-20T00:51:36.597Z,99.99
2017-03-20T00:56:33.573Z,99.99
2017-03-20T01:01:30.021Z,99.99
2017-03-20T01:06:26.511Z,99.99
2017-03-20T01:11:23.142Z,99.99
2017-03-20T01:16:19.879Z,99.99
2017-03-20T01:21:16.394Z,99.99
2017-03-20T01:26:12.938Z,99.99
2017-03-20T01:31:08.877Z,99.99
2017-03-20T01:36:05.533Z,99.99
2017-03-20T01:41:01.842Z,99.99
2017-03-20T01:45:58.170Z,99.99
2017-03-20T01:50:54.521Z,99.99
2017-03-20T01:55:51.297Z,99.99
2017-03-20T02:00:48.475Z,99.99
2017-03-20T02:05:44.483Z,99.99
2017-03-20T02:10:41.302Z,99.99
2017-03-20T02:15:37.837Z,99.99
2017-03-20T02:20:34.743Z,99.99
2017-03-20T02:25:31.574Z,99.99
2017-03-20T02:30:27.796Z,99.99
2017-03-20T02:35:24.241Z,99.99
2017-03-20T02:40:21.459Z,99.99
2017-03-20T02:45:18.021Z,99.99
2017-03-20T02:50:14.614Z,99.99
2017-03-20T02:55:11.362Z,99.99
2017-03-20T03:00:07.640Z,99.99
2017-03-20T03:05:04.668Z,99.99
2017-03-20T03:10:01.284Z,99.99
2017-03-20T03:14:57.927Z,99.99
2017-03-20T03:19:54.388Z,99.99
2017-03-20T03:24:51.344Z,99.99
2017-03-20T03:29:47.803Z,99.99
2017-03-20T03:34:43.999Z,99.99
2017-03-20T03:39:40.563Z,99.99
2017-03-20T03:44:36.862Z,99.99
2017-03-20T03:49:33.325Z,99.99
2017-03-20T03:54:29.958Z,99.99
2017-03-20T03:59:27.067Z,99.99
2017-03-20T04:04:23.645Z,99.99
2017-03-20T04:09:20.324Z,99.99
2017-03-20T04:14:16.746Z,99.99
2017-03-20T04:19:13.105Z,99.99
2017-03-20T04:24:09.491Z,99.99
2017-03-20T04:29:06.792Z,99.99
2017-03-20T04:34:03.317Z,99.99
2017-03-20T04:38:59.526Z,99.99
2017-03-20T04:43:56.337Z,99.99
2017-03-20T04:48:52.828Z,99.99
2017-03-20T04:53:49.025Z,99.99
2017-03-20T04:58:45.424Z,99.99
2017-03-20T05:03:42.763Z,99.99
2017-03-20T05:08:38.810Z,99.99
2017-03-20T05:13:36.443Z,99.99
2017-03-20T05:18:32.689Z,99.99
2017-03-20T05:23:29.799Z,99.99
2017-03-20T05:28:25.867Z,99.99
2017-03-20T05:33:22.742Z,99.99
2017-03-20T05:38:18.764Z,99.99
2017-03-20T05:43:16.314Z,99.99
2017-03-20T05:48:12.901Z,99.99
2017-03-20T05:53:09.115Z,99.99
2017-03-20T05:58:05.421Z,99.99
2017-03-20T06:03:01.970Z,99.99
2017-03-20T06:07:58.589Z,99.99
2017-03-20T06:12:55.486Z,99.99
2017-03-20T06:17:52.061Z,99.99
2017-03-20T06:22:48.785Z,99.99
2017-03-20T06:27:45.918Z,99.99
2017-03-20T06:32:42.563Z,99.99
2017-03-20T06:37:39.002Z,99.99
2017-03-20T06:42:35.434Z,99.99
2017-03-20T06:47:31.866Z,99.99
2017-03-20T06:52:28.033Z,99.99
2017-03-20T06:57:27.359Z,99.99
2017-03-20T07:02:23.321Z,99.99
2017-03-20T07:07:19.740Z,99.99
2017-03-20T07:12:16.284Z,99.99
2017-03-20T07:17:13.247Z,99.99
2017-03-20T07:22:09.616Z,99.99
2017-03-20T07:27:05.924Z,99.99
2017-03-20T07:32:03.214Z,99.99
2017-03-20T07:37:00.100Z,99.99
2017-03-20T07:41:56.446Z,99.99
2017-03-20T07:46:53.275Z,99.99
2017-03-20T07:51:49.778Z,99.99
2017-03-20T07:56:46.434Z,99.99
2017-03-20T08:01:43.143Z,99.99
2017-03-20T08:06:40.939Z,99.99
2017-03-20T08:11:41.898Z,99.99
2017-03-20T08:16:38.371Z,99.99
2017-03-20T08:21:36.111Z,99.99
2017-03-20T08:26:33.676Z,99.99
2017-03-20T08:31:29.791Z,99.99
2017-03-20T08:36:26.384Z,99.99
2017-03-20T08:46:26.553Z,99.99
2017-03-20T08:51:23.361Z,99.99
2017-03-20T08:56:20.105Z,99.99
2017-03-20T09:01:16.777Z,99.99
2017-03-20T09:06:13.805Z,99.99
2017-03-20T09:11:10.732Z,99.99
2017-03-20T09:16:08.190Z,99.99
2017-03-20T09:21:04.372Z,99.99
2017-03-20T09:26:02.108Z,99.99
2017-03-20T09:30:58.489Z,99.99
2017-03-20T09:35:55.401Z,99.99
2017-03-20T09:40:51.986Z,99.99
2017-03-20T09:45:48.329Z,99.99
2017-03-20T09:55:44.853Z,99.99
2017-03-20T10:00:41.381Z,99.99
2017-03-20T10:05:38.035Z,99.99
2017-03-20T10:10:35.229Z,99.99
2017-03-20T10:15:31.734Z,99.99
2017-03-20T10:20:28.297Z,99.99
2017-03-20T10:25:24.950Z,99.99
2017-03-20T10:30:21.924Z,99.99
2017-03-20T10:35:18.376Z,99.99
2017-03-20T10:40:14.593Z,99.99
2017-03-20T10:45:12.449Z,99.99
2017-03-20T10:50:08.937Z,99.99
2017-03-20T10:55:05.407Z,99.99
2017-03-20T11:00:02.632Z,99.99
2017-03-20T11:04:59.355Z,99.99
2017-03-20T11:09:56.184Z,99.99
2017-03-20T11:14:52.715Z,99.99
2017-03-20T11:19:49.211Z,99.99
2017-03-20T11:24:46.034Z,99.99
2017-03-20T11:29:42.703Z,99.99
2017-03-20T11:34:38.752Z,99.99
2017-03-20T11:39:35.633Z,99.99
2017-03-20T11:44:32.033Z,99.99
2017-03-20T11:49:28.525Z,99.99
2017-03-20T11:54:24.727Z,99.99
2017-03-20T11:59:21.996Z,99.99
2017-03-20T12:04:18.507Z,99.99
2017-03-20T12:09:15.573Z,99.99
2017-03-20T12:14:13.241Z,99.99
2017-03-20T12:19:09.670Z,99.99
2017-03-20T12:24:06.763Z,99.99
2017-03-20T12:29:03.236Z,99.99
2017-03-20T12:34:00.518Z,99.99
2017-03-20T12:38:58.154Z,99.99
2017-03-20T12:43:54.835Z,99.99
2017-03-20T12:48:51.616Z,99.99
2017-03-20T12:53:48.158Z,99.99
2017-03-20T12:58:44.406Z,97.75
2017-03-20T13:03:41.036Z,98.99
2017-03-20T13:08:37.754Z,98.13
2017-03-20T13:13:37.684Z,95.61
2017-03-20T13:18:34.465Z,95.61
2017-03-20T13:23:30.937Z,94.27
2017-03-20T13:28:27.702Z,93.65
2017-03-20T13:33:24.767Z,91.64
2017-03-20T13:38:20.723Z,91.74
2017-03-20T13:43:17.309Z,91.16
2017-03-20T13:48:14.049Z,89.87
2017-03-20T13:53:10.954Z,88.82
2017-03-20T13:58:07.698Z,87.68
2017-03-20T14:03:05.551Z,87.87
2017-03-20T14:08:01.789Z,85.67
2017-03-20T14:12:58.219Z,86.43
2017-03-20T14:17:55.286Z,87.01
2017-03-20T14:22:51.749Z,86.43
2017-03-20T14:27:51.445Z,85.63
2017-03-20T14:32:47.734Z,85.67
2017-03-20T14:37:45.312Z,85.19
2017-03-20T14:42:41.705Z,85.48
2017-03-20T14:47:38.550Z,85.29
2017-03-20T14:52:37.391Z,89.54
2017-03-20T14:57:33.005Z,91.50
2017-03-20T15:02:29.559Z,93.88
2017-03-20T15:07:26.213Z,94.56
2017-03-20T15:12:24.018Z,95.79
2017-03-20T15:17:20.735Z,97.56
2017-03-20T15:22:17.372Z,98.13
2017-03-20T15:27:13.545Z,99.85
2017-03-20T15:32:11.448Z,99.99
2017-03-20T15:37:07.583Z,99.99
2017-03-20T15:42:04.223Z,99.37
2017-03-20T15:47:00.869Z,98.61
2017-03-20T15:51:57.350Z,99.75
2017-03-20T15:56:55.178Z,99.75
2017-03-20T16:01:51.243Z,98.13
2017-03-20T16:06:47.729Z,97.94
2017-03-20T16:11:44.444Z,97.85
2017-03-20T16:16:41.455Z,95.84
2017-03-20T16:21:37.512Z,95.84
2017-03-20T16:26:34.008Z,94.56
2017-03-20T16:31:30.415Z,94.17
2017-03-20T16:36:27.321Z,92.74
2017-03-20T16:41:23.880Z,92.55
2017-03-20T16:46:20.547Z,91.88
2017-03-20T16:51:17.298Z,92.46
2017-03-20T16:56:15.029Z,91.69
2017-03-20T17:01:11.911Z,91.69
2017-03-20T17:06:08.162Z,91.88
2017-03-20T17:11:05.498Z,92.36
2017-03-20T17:16:01.965Z,92.65
2017-03-20T17:20:58.989Z,92.26
2017-03-20T17:25:56.848Z,92.36
2017-03-20T17:30:53.017Z,92.07
2017-03-20T17:35:49.850Z,91.69
2017-03-20T17:40:46.268Z,91.74
2017-03-20T17:45:43.087Z,91.74
2017-03-20T17:50:39.801Z,92.12
2017-03-20T17:55:36.234Z,92.41
2017-03-20T18:00:33.258Z,92.69
2017-03-20T18:05:29.762Z,93.27
2017-03-20T18:10:27.142Z,94.03
2017-03-20T18:15:24.122Z,94.79
2017-03-20T18:20:20.524Z,94.03
2017-03-20T18:25:17.301Z,93.84
2017-03-20T18:30:13.720Z,94.03
2017-03-20T18:35:10.920Z,94.70
2017-03-20T18:40:07.248Z,94.74
2017-03-20T18:45:04.086Z,95.79
2017-03-20T18:50:00.407Z,97.22
2017-03-20T18:54:57.526Z,97.80
2017-03-20T18:59:53.408Z,98.70
2017-03-20T19:04:50.483Z,99.99
2017-03-20T19:09:47.174Z,99.99
2017-03-20T19:14:43.485Z,99.99
2017-03-20T19:19:41.076Z,99.99
2017-03-20T19:24:38.160Z,99.99
2017-03-20T19:29:34.804Z,99.99
2017-03-20T19:34:31.155Z,99.99
2017-03-20T19:39:27.557Z,99.99
2017-03-20T19:44:24.548Z,99.99
2017-03-20T19:49:20.778Z,99.99
2017-03-20T19:54:17.065Z,99.99
2017-03-20T19:59:13.842Z,99.99
2017-03-20T20:04:10.951Z,99.99
2017-03-20T20:09:08.339Z,99.99
2017-03-20T20:14:06.498Z,99.99
2017-03-20T20:19:02.651Z,99.18
2017-03-20T20:23:59.346Z,98.41
2017-03-20T20:28:56.506Z,97.46
2017-03-20T20:33:56.534Z,97.56
2017-03-20T20:38:52.645Z,97.08
2017-03-20T20:43:49.282Z,96.60
2017-03-20T20:48:45.682Z,96.12
2017-03-20T20:53:42.182Z,96.60
2017-03-20T20:58:38.933Z,95.75
2017-03-20T21:03:35.371Z,95.70
2017-03-20T21:08:32.872Z,95.08
2017-03-20T21:13:30.219Z,95.27
2017-03-20T21:18:26.875Z,95.08
2017-03-20T21:23:23.467Z,95.36
2017-03-20T21:28:19.578Z,95.56
2017-03-20T21:33:16.763Z,95.84
2017-03-20T21:38:13.233Z,95.46
2017-03-20T21:43:10.017Z,95.36
2017-03-20T21:48:06.391Z,95.94
2017-03-20T21:53:03.271Z,95.65
2017-03-20T21:58:00.370Z,95.17
2017-03-20T22:02:56.936Z,95.56
2017-03-20T22:07:53.910Z,95.46
2017-03-20T22:12:50.336Z,96.32
2017-03-20T22:17:46.884Z,96.03
2017-03-20T22:22:43.630Z,96.32
2017-03-20T22:27:40.348Z,96.41
2017-03-20T22:32:37.489Z,96.12
2017-03-20T22:37:33.571Z,97.75
2017-03-20T22:42:30.310Z,99.65
2017-03-20T22:47:27.050Z,99.99
2017-03-20T22:52:23.461Z,99.99
2017-03-20T22:57:20.428Z,99.55
2017-03-20T23:02:17.152Z,98.60
2017-03-20T23:07:13.375Z,97.08
2017-03-20T23:12:09.817Z,96.89
2017-03-20T23:17:06.560Z,96.41
2017-03-20T23:22:03.905Z,98.41
2017-03-20T23:27:00.420Z,99.99
2017-03-20T23:31:56.644Z,99.99
2017-03-20T23:36:53.243Z,99.99
2017-03-20T23:41:49.616Z,99.99
2017-03-20T23:46:46.221Z,99.99
2017-03-20T23:51:43.245Z,99.99
2017-03-20T23:56:39.936Z,99.99
